createdAt,value
2018-12-06T00:02:27.969Z,32.80
2018-12-06T00:07:23.221Z,33.47
2018-12-06T00:12:17.749Z,33.13
2018-12-06T00:17:12.243Z,28.83
2018-12-06T00:22:07.874Z,28.83
2018-12-06T00:27:03.080Z,28.13
2018-12-06T00:31:57.576Z,27.23
2018-12-06T00:36:52.090Z,30.50
2018-12-06T00:41:46.595Z,27.50
2018-12-06T00:46:41.077Z,27.80
2018-12-06T00:51:35.561Z,26.40
2018-12-06T00:56:30.053Z,28.20
2018-12-06T01:01:25.572Z,25.73
2018-12-06T01:06:20.286Z,25.20
2018-12-06T01:11:14.846Z,28.93
2018-12-06T01:16:09.357Z,27.10
2018-12-06T01:21:03.872Z,24.57
2018-12-06T01:25:58.392Z,30.70
2018-12-06T01:30:52.912Z,30.90
2018-12-06T01:35:48.037Z,26.73
2018-12-06T01:40:42.505Z,22.87
2018-12-06T01:45:37.009Z,29.63
2018-12-06T01:50:31.476Z,25.67
2018-12-06T01:55:25.961Z,30.13
2018-12-06T02:00:20.852Z,29.03
2018-12-06T02:05:15.347Z,26.60
2018-12-06T02:10:10.009Z,27.63
2018-12-06T02:15:04.652Z,28.23
2018-12-06T02:19:59.176Z,27.03
2018-12-06T02:24:53.662Z,26.30
2018-12-06T02:29:53.169Z,28.87
2018-12-06T02:34:47.695Z,27.00
2018-12-06T02:39:42.248Z,24.43
2018-12-06T02:44:37.004Z,23.83
2018-12-06T02:49:31.585Z,29.40
2018-12-06T02:54:26.130Z,25.17
2018-12-06T02:59:20.684Z,25.23
2018-12-06T03:04:15.240Z,26.50
2018-12-06T03:09:10.114Z,26.70
2018-12-06T03:14:04.717Z,23.93
2018-12-06T03:19:00.446Z,25.63
2018-12-06T03:23:55.006Z,26.97
2018-12-06T03:28:49.577Z,27.57
2018-12-06T03:33:44.143Z,29.03
2018-12-06T03:38:38.971Z,29.00
2018-12-06T03:43:34.291Z,25.60
2018-12-06T03:48:29.143Z,26.90
2018-12-06T03:53:23.780Z,25.43
2018-12-06T03:58:18.414Z,29.00
2018-12-06T04:03:13.617Z,27.87
2018-12-06T04:08:08.457Z,32.37
2018-12-06T04:13:04.189Z,27.73
2018-12-06T04:17:58.815Z,28.57
2018-12-06T04:22:53.911Z,25.20
2018-12-06T04:27:48.618Z,24.30
2018-12-06T04:32:43.862Z,29.20
2018-12-06T04:37:39.238Z,24.53
2018-12-06T04:42:33.824Z,24.27
2018-12-06T04:47:28.427Z,27.27
2018-12-06T04:52:22.990Z,25.20
2018-12-06T04:57:17.546Z,21.53
2018-12-06T05:02:12.170Z,27.07
2018-12-06T05:07:06.745Z,24.30
2018-12-06T05:12:01.339Z,148.57
2018-12-06T05:16:56.014Z,91.57
2018-12-06T05:21:50.569Z,31.20
2018-12-06T05:26:45.137Z,27.27
2018-12-06T05:31:39.685Z,22.67
2018-12-06T05:36:34.223Z,24.33
2018-12-06T05:41:28.807Z,24.60
2018-12-06T05:46:23.398Z,27.90
2018-12-06T05:51:18.032Z,27.00
2018-12-06T05:56:12.678Z,21.70
2018-12-06T06:01:07.199Z,23.73
2018-12-06T06:06:01.781Z,28.33
2018-12-06T06:10:56.345Z,30.33
2018-12-06T06:15:50.957Z,41.63
2018-12-06T06:20:45.603Z,44.37
2018-12-06T06:25:40.199Z,40.43
2018-12-06T06:30:34.800Z,43.23
2018-12-06T06:35:29.325Z,28.97
2018-12-06T06:40:23.886Z,24.10
2018-12-06T06:45:18.441Z,27.27
2018-12-06T06:50:13.004Z,22.53
2018-12-06T06:55:07.607Z,25.83
2018-12-06T07:00:02.388Z,29.17
2018-12-06T07:04:57.003Z,32.80
2018-12-06T07:09:51.732Z,28.73
2018-12-06T07:14:46.347Z,32.23
2018-12-06T07:19:40.905Z,30.03
2018-12-06T07:24:35.505Z,32.13
2018-12-06T07:29:30.688Z,31.20
2018-12-06T07:34:25.268Z,29.37
2018-12-06T07:39:19.987Z,29.07
2018-12-06T07:44:14.555Z,27.17
2018-12-06T07:49:09.584Z,27.70
2018-12-06T07:54:04.246Z,28.67
2018-12-06T07:58:58.835Z,25.73
2018-12-06T08:03:53.391Z,26.13
2018-12-06T08:08:47.958Z,24.40
2018-12-06T08:13:42.541Z,27.73
2018-12-06T08:18:37.130Z,29.33
2018-12-06T08:23:31.713Z,24.97
2018-12-06T08:28:26.291Z,27.13
2018-12-06T08:33:21.903Z,26.67
2018-12-06T08:38:16.646Z,24.93
2018-12-06T08:43:11.230Z,25.27
2018-12-06T08:48:05.811Z,26.40
2018-12-06T08:53:00.370Z,21.10
2018-12-06T08:57:54.959Z,24.10
2018-12-06T09:02:50.008Z,23.33
2018-12-06T09:07:44.581Z,22.40
2018-12-06T09:12:39.191Z,22.03
2018-12-06T09:17:33.758Z,24.20
2018-12-06T09:22:28.382Z,22.00
2018-12-06T09:27:22.979Z,19.13
2018-12-06T09:32:17.583Z,24.50
2018-12-06T09:37:12.205Z,21.00
2018-12-06T09:42:06.815Z,23.63
2018-12-06T09:47:01.719Z,23.30
2018-12-06T09:51:56.310Z,21.37
2018-12-06T09:56:50.925Z,20.20
2018-12-06T10:01:45.522Z,18.73
2018-12-06T10:06:40.102Z,22.57
2018-12-06T10:12:05.359Z,20.23
2018-12-06T10:16:59.950Z,19.80
2018-12-06T10:21:54.583Z,18.30
2018-12-06T10:26:49.179Z,20.27
2018-12-06T10:31:43.748Z,24.93
2018-12-06T10:36:38.287Z,22.43
2018-12-06T10:41:32.863Z,19.43
2018-12-06T10:46:27.510Z,20.03
2018-12-06T10:51:33.054Z,19.63
2018-12-06T10:56:27.642Z,19.33
2018-12-06T11:01:26.378Z,20.33
2018-12-06T11:06:21.047Z,21.20
2018-12-06T11:11:15.707Z,20.23
2018-12-06T11:16:10.298Z,23.87
2018-12-06T11:21:04.897Z,20.13
2018-12-06T11:25:59.475Z,18.47
2018-12-06T11:30:54.086Z,19.13
2018-12-06T11:35:49.694Z,21.93
2018-12-06T11:40:44.260Z,24.07
2018-12-06T11:45:38.841Z,20.97
2018-12-06T11:50:33.470Z,24.20
2018-12-06T11:55:28.230Z,27.87
2018-12-06T12:00:23.005Z,22.70
2018-12-06T12:05:17.576Z,23.87
2018-12-06T12:10:12.167Z,24.00
2018-12-06T12:15:07.251Z,21.60
2018-12-06T12:20:01.829Z,24.83
2018-12-06T12:24:56.397Z,25.27
2018-12-06T12:29:50.986Z,20.97
2018-12-06T12:34:45.573Z,19.33
2018-12-06T12:39:40.150Z,21.27
2018-12-06T12:44:34.735Z,21.17
2018-12-06T12:49:29.635Z,21.50
2018-12-06T12:54:24.200Z,21.40
2018-12-06T12:59:18.848Z,23.97
2018-12-06T13:04:13.385Z,18.73
2018-12-06T13:09:08.552Z,18.63
2018-12-06T13:14:03.139Z,18.70
2018-12-06T13:18:57.959Z,21.73
2018-12-06T13:23:52.603Z,21.10
2018-12-06T13:28:47.256Z,22.07
2018-12-06T13:33:41.867Z,23.33
2018-12-06T13:38:36.643Z,23.70
2018-12-06T13:43:31.279Z,26.37
2018-12-06T13:48:27.912Z,23.40
2018-12-06T13:53:22.592Z,21.90
2018-12-06T13:58:17.321Z,21.37
2018-12-06T14:03:11.983Z,24.47
2018-12-06T14:08:07.367Z,21.73
2018-12-06T14:13:01.948Z,24.33
2018-12-06T14:17:56.683Z,17.93
2018-12-06T14:22:51.239Z,21.47
2018-12-06T14:27:45.891Z,30.33
2018-12-06T14:32:40.490Z,26.17
2018-12-06T14:37:35.073Z,21.33
2018-12-06T14:42:29.670Z,22.03
2018-12-06T14:47:24.242Z,27.53
2018-12-06T14:52:18.850Z,21.50
2018-12-06T14:57:13.437Z,29.93
2018-12-06T15:02:08.100Z,22.73
2018-12-06T15:07:02.766Z,26.03
2018-12-06T15:11:57.378Z,27.63
2018-12-06T15:16:53.090Z,31.57
2018-12-06T15:21:47.708Z,29.77
2018-12-06T15:26:42.410Z,24.03
2018-12-06T15:31:37.018Z,29.03
2018-12-06T15:36:31.605Z,24.53
2018-12-06T15:41:26.251Z,24.33
2018-12-06T15:46:20.907Z,27.00
2018-12-06T15:51:15.530Z,26.07
2018-12-06T15:56:10.105Z,33.47
2018-12-06T16:01:04.723Z,32.03
2018-12-06T16:05:59.314Z,34.40
2018-12-06T16:10:53.987Z,29.97
2018-12-06T16:15:48.553Z,28.57
2018-12-06T16:20:43.143Z,35.27
2018-12-06T16:25:37.786Z,32.13
2018-12-06T16:30:32.829Z,55.80
2018-12-06T16:35:27.435Z,48.80
2018-12-06T16:40:22.040Z,45.20
2018-12-06T16:45:17.399Z,49.17
2018-12-06T16:50:50.851Z,36.33
2018-12-06T16:55:50.455Z,34.93
2018-12-06T17:00:45.126Z,37.40
2018-12-06T17:05:40.173Z,34.07
2018-12-06T17:10:35.835Z,47.33
2018-12-06T17:15:30.650Z,48.27
2018-12-06T17:20:25.342Z,28.93
2018-12-06T17:25:20.011Z,34.47
2018-12-06T17:30:14.727Z,35.03
2018-12-06T17:35:10.309Z,30.77
2018-12-06T17:40:05.413Z,28.67
2018-12-06T17:45:00.510Z,40.13
2018-12-06T17:49:55.149Z,39.90
2018-12-06T17:54:50.237Z,36.90
2018-12-06T17:59:44.893Z,95.40
2018-12-06T18:04:39.548Z,75.30
2018-12-06T18:09:34.574Z,65.00
2018-12-06T18:14:29.207Z,47.50
2018-12-06T18:19:23.912Z,41.93
2018-12-06T18:24:18.956Z,42.90
2018-12-06T18:29:13.711Z,37.70
2018-12-06T18:34:08.450Z,40.97
2018-12-06T18:39:04.669Z,44.30
2018-12-06T18:44:00.755Z,58.23
2018-12-06T18:48:55.930Z,38.80
2018-12-06T18:53:51.042Z,48.37
2018-12-06T18:58:46.037Z,41.90
2018-12-06T19:03:40.951Z,56.50
2018-12-06T19:08:35.964Z,42.80
2018-12-06T19:13:30.632Z,43.13
2018-12-06T19:18:25.612Z,52.60
2018-12-06T19:23:20.564Z,55.87
2018-12-06T19:28:15.257Z,51.50
2018-12-06T19:33:09.872Z,64.47
2018-12-06T19:38:04.947Z,40.00
2018-12-06T19:42:59.623Z,35.70
2018-12-06T19:47:54.305Z,39.30
2018-12-06T19:52:49.102Z,51.47
2018-12-06T19:57:43.712Z,43.23
2018-12-06T20:02:38.980Z,44.47
2018-12-06T20:07:34.871Z,35.83
2018-12-06T20:12:30.213Z,39.87
2018-12-06T20:17:25.474Z,52.83
2018-12-06T20:22:20.875Z,45.83
2018-12-06T20:27:16.246Z,57.10
2018-12-06T20:32:14.783Z,52.70
2018-12-06T20:37:08.507Z,50.60
2018-12-06T20:42:03.628Z,46.30
2018-12-06T20:46:59.608Z,38.77
2018-12-06T20:51:54.501Z,39.13
2018-12-06T20:56:49.680Z,43.03
2018-12-06T21:01:45.066Z,46.33
2018-12-06T21:06:40.171Z,46.47
2018-12-06T21:11:35.030Z,40.77
2018-12-06T21:16:30.242Z,41.17
2018-12-06T21:21:25.219Z,46.13
2018-12-06T21:26:20.398Z,47.97
2018-12-06T21:31:15.988Z,43.57
2018-12-06T21:36:13.640Z,39.67
2018-12-06T21:41:08.547Z,38.40
2018-12-06T21:46:03.203Z,37.60
2018-12-06T21:50:57.864Z,39.90
2018-12-06T21:55:52.526Z,36.57
2018-12-06T22:00:47.174Z,41.10
2018-12-06T22:05:41.783Z,43.43
2018-12-06T22:10:36.386Z,42.50
2018-12-06T22:15:31.013Z,36.70
2018-12-06T22:20:25.605Z,40.53
2018-12-06T22:25:20.182Z,47.27
2018-12-06T22:30:14.810Z,43.00
2018-12-06T22:35:09.359Z,41.40
2018-12-06T22:40:04.481Z,46.17
2018-12-06T22:45:14.937Z,40.50
2018-12-06T22:50:09.569Z,38.13
2018-12-06T22:55:04.382Z,37.23
2018-12-06T22:59:58.891Z,47.47
2018-12-06T23:04:53.397Z,38.80
2018-12-06T23:09:47.885Z,38.73
2018-12-06T23:14:42.406Z,36.63
2018-12-06T23:19:36.928Z,46.93
2018-12-06T23:24:31.462Z,41.17
2018-12-06T23:29:26.109Z,39.23
2018-12-06T23:34:21.445Z,33.63
2018-12-06T23:39:16.123Z,32.03
2018-12-06T23:44:10.649Z,39.77
2018-12-06T23:49:05.301Z,35.20
2018-12-06T23:53:59.783Z,38.93
2018-12-06T23:58:54.478Z,68.67
